createdAt,value
2022-11-15T00:01:19.111Z,95550.22
2022-11-15T00:04:05.648Z,95550.44
2022-11-15T00:06:51.279Z,95552.44
2022-11-15T00:09:39.909Z,95538.09
2022-11-15T00:12:29.613Z,95553.97
2022-11-15T00:15:15.860Z,95557.81
2022-11-15T00:18:01.890Z,95548.31
2022-11-15T00:20:47.912Z,95554.28
2022-11-15T00:23:35.361Z,95559.84
2022-11-15T00:26:21.132Z,95562.50
2022-11-15T00:29:07.151Z,95558.38
2022-11-15T00:31:53.956Z,95558.03
2022-11-15T00:34:40.017Z,95567.53
2022-11-15T00:37:25.906Z,95582.28
2022-11-15T00:40:14.073Z,95584.06
2022-11-15T00:43:00.292Z,95587.13
2022-11-15T00:45:45.964Z,95582.13
2022-11-15T00:48:32.671Z,95581.25
2022-11-15T00:51:18.667Z,95585.69
2022-11-15T00:54:04.809Z,95585.75
2022-11-15T00:56:50.606Z,95588.41
2022-11-15T00:59:36.566Z,95578.16
2022-11-15T01:02:22.684Z,95579.94
2022-11-15T01:05:09.282Z,95586.78
2022-11-15T01:07:56.647Z,95583.72
2022-11-15T01:10:43.000Z,95595.16
2022-11-15T01:13:34.965Z,95588.31
2022-11-15T01:16:21.024Z,95589.53
2022-11-15T01:19:06.858Z,95589.53
2022-11-15T01:21:53.206Z,95590.81
2022-11-15T01:24:39.339Z,95593.69
2022-11-15T01:27:25.337Z,95592.69
2022-11-15T01:30:11.564Z,95599.28
2022-11-15T01:32:57.233Z,95598.94
2022-11-15T01:35:43.571Z,95599.28
2022-11-15T01:38:29.870Z,95605.56
2022-11-15T01:41:21.631Z,95605.25
2022-11-15T01:44:32.227Z,95609.16
2022-11-15T01:47:30.332Z,95613.94
2022-11-15T01:50:22.259Z,95606.78
2022-11-15T01:53:08.910Z,95615.81
2022-11-15T01:55:55.599Z,95615.81
2022-11-15T01:58:44.002Z,95619.00
2022-11-15T02:01:31.972Z,95615.25
2022-11-15T02:04:24.281Z,95624.69
2022-11-15T02:07:13.259Z,95631.47
2022-11-15T02:10:10.012Z,95624.69
2022-11-15T02:12:58.326Z,95632.31
2022-11-15T02:16:06.470Z,95631.97
2022-11-15T02:19:41.788Z,95622.84
2022-11-15T02:22:52.582Z,95631.81
2022-11-15T02:25:56.931Z,95640.63
2022-11-15T02:29:01.058Z,95644.03
2022-11-15T02:32:32.924Z,95640.91
2022-11-15T02:35:28.834Z,95644.09
2022-11-15T02:38:27.626Z,95643.75
2022-11-15T02:41:32.319Z,95656.38
2022-11-15T02:44:36.623Z,95655.19
2022-11-15T02:47:23.776Z,95655.44
2022-11-15T02:50:13.505Z,95657.41
2022-11-15T02:52:59.921Z,95664.47
2022-11-15T02:55:49.965Z,95656.34
2022-11-15T02:58:41.656Z,95667.81
2022-11-15T03:01:50.275Z,95675.41
2022-11-15T03:05:00.111Z,95679.25
2022-11-15T03:08:18.941Z,95691.41
2022-11-15T03:11:10.690Z,95691.28
2022-11-15T03:14:18.307Z,95699.00
2022-11-15T03:17:13.943Z,95697.88
2022-11-15T03:20:02.955Z,95701.38
2022-11-15T03:22:50.736Z,95693.53
2022-11-15T03:25:42.289Z,95705.97
2022-11-15T03:29:01.510Z,95706.66
2022-11-15T03:31:54.084Z,95704.03
2022-11-15T03:34:51.227Z,95707.69
2022-11-15T03:37:55.752Z,95701.47
2022-11-15T03:40:45.611Z,95715.16
2022-11-15T03:43:41.891Z,95719.78
2022-11-15T03:46:34.361Z,95720.31
2022-11-15T03:49:35.285Z,95721.84
2022-11-15T03:52:23.161Z,95727.81
2022-11-15T03:55:12.508Z,95735.84
2022-11-15T03:58:01.107Z,95733.78
2022-11-15T04:00:46.949Z,95734.88
2022-11-15T04:03:33.226Z,95733.09
2022-11-15T04:06:19.293Z,95742.78
2022-11-15T04:09:05.944Z,95740.13
2022-11-15T04:11:51.914Z,95748.94
2022-11-15T04:14:37.481Z,95746.97
2022-11-15T04:17:23.404Z,95753.13
2022-11-15T04:20:31.444Z,95764.94
2022-11-15T04:23:40.937Z,95761.59
2022-11-15T04:26:27.074Z,95761.59
2022-11-15T04:29:44.866Z,95768.09
2022-11-15T04:32:31.895Z,95771.69
2022-11-15T04:35:17.931Z,95775.22
2022-11-15T04:38:06.244Z,95773.06
2022-11-15T04:40:52.304Z,95774.19
2022-11-15T04:43:37.962Z,95774.97
2022-11-15T04:46:25.023Z,95774.81
2022-11-15T04:49:11.151Z,95787.97
2022-11-15T04:51:57.087Z,95782.34
2022-11-15T04:54:44.183Z,95785.31
2022-11-15T04:57:31.936Z,95790.28
2022-11-15T05:00:18.490Z,95789.84
2022-11-15T05:03:22.756Z,95794.38
2022-11-15T05:06:08.778Z,95800.53
2022-11-15T05:08:54.981Z,95792.16
2022-11-15T05:11:41.626Z,95800.38
2022-11-15T05:14:27.627Z,95801.25
2022-11-15T05:17:13.793Z,95794.91
2022-11-15T05:19:59.738Z,95806.81
2022-11-15T05:22:45.589Z,95807.69
2022-11-15T05:25:31.933Z,95810.41
2022-11-15T05:28:17.593Z,95810.91
2022-11-15T05:31:09.870Z,95820.34
2022-11-15T05:33:57.772Z,95823.16
2022-11-15T05:36:44.487Z,95834.13
2022-11-15T05:39:30.300Z,95830.78
2022-11-15T05:42:17.201Z,95834.88
2022-11-15T05:45:07.149Z,95837.69
2022-11-15T05:47:54.015Z,95839.25
2022-11-15T05:50:43.164Z,95846.78
2022-11-15T05:53:29.468Z,95846.78
2022-11-15T05:56:16.107Z,95846.66
2022-11-15T05:59:02.284Z,95850.63
2022-11-15T06:01:48.627Z,95852.50
2022-11-15T06:04:34.778Z,95857.78
2022-11-15T06:07:20.973Z,95862.59
2022-11-15T06:10:07.935Z,95865.88
2022-11-15T06:13:05.407Z,95878.44
2022-11-15T06:15:51.520Z,95874.75
2022-11-15T06:18:38.056Z,95876.97
2022-11-15T06:21:24.197Z,95873.81
2022-11-15T06:24:36.270Z,95871.66
2022-11-15T06:27:22.305Z,95885.72
2022-11-15T06:30:15.517Z,95883.66
2022-11-15T06:33:17.379Z,95890.91
2022-11-15T06:36:14.552Z,95891.16
2022-11-15T06:39:04.569Z,95880.13
2022-11-15T06:41:55.896Z,95890.16
2022-11-15T06:44:42.107Z,95891.88
2022-11-15T06:47:30.232Z,95901.72
2022-11-15T06:50:16.524Z,95893.59
2022-11-15T06:53:25.178Z,95900.00
2022-11-15T06:56:11.451Z,95899.56
2022-11-15T06:58:57.304Z,95896.66
2022-11-15T07:01:43.820Z,95897.94
2022-11-15T07:04:29.785Z,95903.00
2022-11-15T07:07:15.882Z,95893.91
2022-11-15T07:10:02.158Z,95898.09
2022-11-15T07:12:50.801Z,95898.94
2022-11-15T07:15:36.462Z,95900.75
2022-11-15T07:18:22.614Z,95902.38
2022-11-15T07:21:11.062Z,95901.84
2022-11-15T07:23:57.015Z,95906.22
2022-11-15T07:26:42.688Z,95900.69
2022-11-15T07:29:28.982Z,95909.66
2022-11-15T07:32:14.584Z,95920.44
2022-11-15T07:35:00.725Z,95907.25
2022-11-15T07:37:57.952Z,95915.41
2022-11-15T07:40:48.077Z,95907.25
2022-11-15T07:43:35.240Z,95917.75
2022-11-15T07:46:21.374Z,95921.66
2022-11-15T07:49:07.412Z,95921.31
2022-11-15T07:51:53.348Z,95916.13
2022-11-15T07:54:39.333Z,95924.13
2022-11-15T07:57:25.477Z,95930.22
2022-11-15T08:00:11.746Z,95923.63
2022-11-15T08:03:10.032Z,95933.16
2022-11-15T08:05:56.223Z,95936.06
2022-11-15T08:08:42.248Z,95946.28
2022-11-15T08:11:41.830Z,95934.59
2022-11-15T08:14:58.888Z,95929.16
2022-11-15T08:18:25.644Z,95939.50
2022-11-15T08:21:53.915Z,95923.44
2022-11-15T08:29:00.606Z,95947.00
2022-11-15T08:31:46.783Z,95955.78
2022-11-15T08:34:32.510Z,95954.25
2022-11-15T08:37:18.159Z,95975.03
2022-11-15T08:40:05.330Z,95974.69
2022-11-15T08:42:51.134Z,95972.22
2022-11-15T08:45:37.224Z,95978.03
2022-11-15T08:48:23.138Z,95973.69
2022-11-15T08:51:09.284Z,95977.84
2022-11-15T08:53:55.117Z,95980.59
2022-11-15T08:56:41.218Z,95991.25
2022-11-15T09:02:52.689Z,96000.81
2022-11-15T09:05:39.196Z,96001.69
2022-11-15T09:08:46.634Z,95998.75
2022-11-15T09:11:31.889Z,96003.31
2022-11-15T09:14:17.981Z,96010.78
2022-11-15T09:17:04.379Z,96013.44
2022-11-15T09:19:50.291Z,96014.13
2022-11-15T09:22:37.722Z,96018.75
2022-11-15T09:25:23.942Z,96015.31
2022-11-15T09:28:10.003Z,96024.56
2022-11-15T09:31:05.110Z,96022.41
2022-11-15T09:33:51.292Z,96021.91
2022-11-15T09:36:37.575Z,96031.34
2022-11-15T09:39:23.441Z,96031.75
2022-11-15T09:42:23.599Z,96037.59
2022-11-15T09:45:34.683Z,96039.75
2022-11-15T09:48:45.760Z,96039.59
2022-11-15T09:51:48.020Z,96050.91
2022-11-15T09:54:52.806Z,96056.22
2022-11-15T09:57:50.901Z,96063.75
2022-11-15T10:00:47.107Z,96065.16
2022-11-15T10:03:15.635Z,96062.66
2022-11-15T10:05:48.584Z,96063.78
2022-11-15T10:08:25.024Z,96077.91
2022-11-15T10:11:30.627Z,96071.06
2022-11-15T10:13:50.594Z,96082.13
2022-11-15T10:16:27.085Z,96081.34
2022-11-15T10:19:01.655Z,96078.63
2022-11-15T10:21:46.966Z,96078.34
2022-11-15T10:24:25.102Z,96079.81
2022-11-15T10:26:52.574Z,96068.75
2022-11-15T10:29:26.986Z,96083.75
2022-11-15T10:31:55.002Z,96079.72
2022-11-15T10:34:25.218Z,96076.28
2022-11-15T10:36:57.339Z,96084.25
2022-11-15T10:39:25.498Z,96087.25
2022-11-15T10:41:53.410Z,96082.19
2022-11-15T10:44:30.606Z,96093.88
2022-11-15T10:46:57.964Z,96088.03
2022-11-15T10:49:29.878Z,96087.50
2022-11-15T10:52:26.964Z,96099.50
2022-11-15T10:55:19.424Z,96103.97
2022-11-15T10:57:56.170Z,96104.63
2022-11-15T11:00:23.471Z,96104.81
2022-11-15T11:02:59.282Z,96109.00
2022-11-15T11:05:41.364Z,96106.69
2022-11-15T11:08:16.525Z,96107.63
2022-11-15T11:11:04.167Z,96123.72
2022-11-15T11:13:31.720Z,96122.75
2022-11-15T11:16:39.166Z,96122.97
2022-11-15T11:19:39.326Z,96121.59
2022-11-15T11:22:25.011Z,96126.03
2022-11-15T11:25:07.365Z,96119.31
2022-11-15T11:28:06.957Z,96122.72
2022-11-15T11:30:50.799Z,96123.50
2022-11-15T11:33:21.427Z,96123.41
2022-11-15T11:36:03.366Z,96126.50
2022-11-15T11:38:34.052Z,96130.63
2022-11-15T11:41:26.783Z,96126.94
2022-11-15T11:44:44.417Z,96139.53
2022-11-15T11:48:02.419Z,96139.53
2022-11-15T11:50:30.230Z,96137.03
2022-11-15T11:53:15.592Z,96143.56
2022-11-15T11:55:47.279Z,96137.03
2022-11-15T11:58:37.021Z,96147.38
2022-11-15T12:01:23.757Z,96151.50
2022-11-15T12:03:59.509Z,96157.47
2022-11-15T12:06:57.980Z,96156.13
2022-11-15T12:09:35.198Z,96167.44
2022-11-15T12:12:20.748Z,96155.69
2022-11-15T12:15:26.311Z,96170.53
2022-11-15T12:17:56.618Z,96160.91
2022-11-15T12:20:35.261Z,96164.69
2022-11-15T12:23:22.238Z,96165.97
2022-11-15T12:26:05.625Z,96171.19
2022-11-15T12:29:08.034Z,96178.63
2022-11-15T12:31:36.339Z,96172.66
2022-11-15T12:34:18.663Z,96175.56
2022-11-15T12:36:46.633Z,96170.72
2022-11-15T12:39:16.036Z,96181.78
2022-11-15T12:41:58.883Z,96191.72
2022-11-15T12:44:32.617Z,96192.28
2022-11-15T12:47:04.417Z,96187.72
2022-11-15T12:49:31.923Z,96189.97
2022-11-15T12:51:59.630Z,96190.72
2022-11-15T12:54:29.652Z,96195.28
2022-11-15T12:57:09.789Z,96202.13
2022-11-15T12:59:59.407Z,96200.91
2022-11-15T13:02:39.414Z,96200.72
2022-11-15T13:05:23.443Z,96205.34
2022-11-15T13:07:50.978Z,96198.28
2022-11-15T13:10:18.335Z,96210.78
2022-11-15T13:12:45.644Z,96209.22
2022-11-15T13:15:13.398Z,96207.31
2022-11-15T13:18:20.940Z,96216.16
2022-11-15T13:20:48.495Z,96225.13
2022-11-15T13:23:17.901Z,96221.25
2022-11-15T13:26:06.801Z,96212.53
2022-11-15T13:28:45.491Z,96226.47
2022-11-15T13:31:15.976Z,96226.69
2022-11-15T13:33:45.305Z,96231.09
2022-11-15T13:36:22.671Z,96230.00
2022-11-15T13:39:13.580Z,96230.44
2022-11-15T13:41:52.433Z,96226.69
2022-11-15T13:44:25.786Z,96228.03
2022-11-15T13:47:14.712Z,96232.66
2022-11-15T13:49:42.738Z,96233.19
2022-11-15T13:52:15.637Z,96234.84
2022-11-15T13:55:00.103Z,96225.03
2022-11-15T13:57:50.456Z,96241.84
2022-11-15T14:00:30.115Z,96230.44
2022-11-15T14:02:58.625Z,96232.19
2022-11-15T14:05:26.597Z,96230.44
2022-11-15T14:08:24.097Z,96233.75
2022-11-15T14:11:27.614Z,96237.63
2022-11-15T14:14:10.497Z,96244.03
2022-11-15T14:16:42.590Z,96245.78
2022-11-15T14:19:22.233Z,96241.03
2022-11-15T14:22:09.425Z,96251.66
2022-11-15T14:24:38.266Z,96258.72
2022-11-15T14:27:27.394Z,96257.63
2022-11-15T14:29:55.526Z,96253.75
2022-11-15T14:32:25.753Z,96265.56
2022-11-15T14:35:01.856Z,96253.75
2022-11-15T14:37:35.952Z,96262.38
2022-11-15T14:40:06.732Z,96260.47
2022-11-15T14:42:34.082Z,96261.81
2022-11-15T14:45:01.567Z,96267.44
2022-11-15T14:47:30.939Z,96268.13
2022-11-15T14:49:58.354Z,96257.50
2022-11-15T14:52:32.729Z,96262.56
2022-11-15T14:55:02.506Z,96269.63
2022-11-15T14:57:31.802Z,96269.22
2022-11-15T14:59:59.181Z,96276.41
2022-11-15T15:02:40.467Z,96272.75
2022-11-15T15:05:34.596Z,96272.50
2022-11-15T15:08:02.665Z,96276.16
2022-11-15T15:10:42.495Z,96287.88
2022-11-15T15:13:24.369Z,96281.69
2022-11-15T15:15:53.140Z,96282.81
2022-11-15T15:18:21.386Z,96284.34
2022-11-15T15:20:59.166Z,96286.22
2022-11-15T15:23:30.352Z,96288.75
2022-11-15T15:25:58.880Z,96298.16
2022-11-15T15:28:30.003Z,96302.56
2022-11-15T15:31:01.550Z,96300.69
2022-11-15T15:33:28.994Z,96301.03
2022-11-15T15:35:56.429Z,96301.78
2022-11-15T15:38:24.039Z,96306.53
2022-11-15T15:40:51.947Z,96315.13
2022-11-15T15:43:19.710Z,96314.09
2022-11-15T15:45:47.907Z,96312.13
2022-11-15T15:48:17.839Z,96314.91
2022-11-15T15:50:46.369Z,96313.25
2022-11-15T15:53:14.478Z,96321.09
2022-11-15T15:55:42.026Z,96312.34
2022-11-15T15:58:09.644Z,96320.00
2022-11-15T16:00:40.280Z,96315.81
2022-11-15T16:03:07.689Z,96316.69
2022-11-15T16:05:35.278Z,96321.78
2022-11-15T16:08:02.911Z,96329.84
2022-11-15T16:10:32.900Z,96302.97
2022-11-15T16:13:00.513Z,96326.44
2022-11-15T16:15:31.059Z,96322.22
2022-11-15T16:18:00.631Z,96330.94
2022-11-15T16:20:35.249Z,96342.03
2022-11-15T16:23:08.977Z,96321.00
2022-11-15T16:25:40.387Z,96333.28
2022-11-15T16:28:20.765Z,96339.38
2022-11-15T16:30:53.907Z,96313.25
2022-11-15T16:33:27.092Z,96348.09
2022-11-15T16:35:54.567Z,96344.34
2022-11-15T16:38:22.190Z,96358.81
2022-11-15T16:40:49.734Z,96348.56
2022-11-15T16:43:17.383Z,96356.59
2022-11-15T16:45:45.155Z,96360.47
2022-11-15T16:48:26.281Z,96355.63
2022-11-15T16:50:58.191Z,96357.84
2022-11-15T16:53:26.923Z,96368.09
2022-11-15T16:55:56.158Z,96358.16
2022-11-15T16:58:25.416Z,96367.53
2022-11-15T17:00:54.716Z,96369.88
2022-11-15T17:03:25.627Z,96374.72
2022-11-15T17:05:53.300Z,96368.97
2022-11-15T17:08:22.216Z,96374.94
2022-11-15T17:10:49.778Z,96383.66
2022-11-15T17:13:17.545Z,96393.50
2022-11-15T17:15:44.924Z,96390.41
2022-11-15T17:18:13.662Z,96390.06
2022-11-15T17:20:41.805Z,96395.38
2022-11-15T17:23:14.851Z,96401.88
2022-11-15T17:25:42.765Z,96395.47
2022-11-15T17:28:11.077Z,96407.31
2022-11-15T17:30:42.301Z,96398.69
2022-11-15T17:33:09.677Z,96407.13
2022-11-15T17:35:37.075Z,96402.44
2022-11-15T17:38:05.796Z,96411.00
2022-11-15T17:40:33.540Z,96413.84
2022-11-15T17:43:01.106Z,96405.75
2022-11-15T17:45:28.613Z,96414.84
2022-11-15T17:47:56.086Z,96418.56
2022-11-15T17:50:23.628Z,96415.94
2022-11-15T17:52:51.173Z,96418.91
2022-11-15T17:55:18.591Z,96420.75
2022-11-15T17:57:46.058Z,96424.25
2022-11-15T18:00:15.196Z,96425.81
2022-11-15T18:02:43.478Z,96420.75
2022-11-15T18:05:11.096Z,96434.75
2022-11-15T18:07:38.879Z,96428.56
2022-11-15T18:10:06.777Z,96429.22
2022-11-15T18:12:35.481Z,96433.38
2022-11-15T18:15:03.716Z,96419.88
2022-11-15T18:17:31.596Z,96428.41
2022-11-15T18:19:59.336Z,96428.69
2022-11-15T18:22:26.923Z,96409.50
2022-11-15T18:24:54.443Z,96427.47
2022-11-15T18:27:21.880Z,96430.69
2022-11-15T18:29:49.292Z,96441.72
2022-11-15T18:32:18.076Z,96439.53
2022-11-15T18:34:45.694Z,96443.72
2022-11-15T18:37:13.363Z,96449.69
2022-11-15T18:39:40.877Z,96444.97
2022-11-15T18:42:08.268Z,96447.16
2022-11-15T18:44:35.725Z,96438.75
2022-11-15T18:47:03.131Z,96439.72
2022-11-15T18:49:30.574Z,96452.47
2022-11-15T18:51:58.139Z,96448.25
2022-11-15T18:54:30.579Z,96448.25
2022-11-15T18:56:59.124Z,96453.56
2022-11-15T18:59:28.047Z,96454.22
2022-11-15T19:01:58.048Z,96458.44
2022-11-15T19:04:25.744Z,96457.97
2022-11-15T19:06:53.812Z,96462.16
2022-11-15T19:09:21.568Z,96473.09
2022-11-15T19:11:54.642Z,96472.19
2022-11-15T19:14:24.482Z,96473.88
2022-11-15T19:16:53.167Z,96473.88
2022-11-15T19:19:23.340Z,96478.09
2022-11-15T19:21:51.402Z,96482.91
2022-11-15T19:24:18.839Z,96476.41
2022-11-15T19:26:47.377Z,96488.75
2022-11-15T19:29:15.559Z,96490.63
2022-11-15T19:31:43.357Z,96498.88
2022-11-15T19:34:13.504Z,96502.63
2022-11-15T19:36:43.476Z,96497.31
2022-11-15T19:39:13.445Z,96495.78
2022-11-15T19:41:43.035Z,96502.97
2022-11-15T19:44:11.759Z,96511.69
2022-11-15T19:46:40.077Z,96512.03
2022-11-15T19:49:11.680Z,96510.78
2022-11-15T19:51:41.867Z,96509.88
2022-11-15T19:54:12.246Z,96490.28
2022-11-15T19:56:40.358Z,96496.53
2022-11-15T19:59:11.881Z,96505.09
2022-11-15T20:01:40.148Z,96506.22
2022-11-15T20:04:10.354Z,96482.63
2022-11-15T20:06:41.116Z,96512.44
2022-11-15T20:09:12.733Z,96506.41
2022-11-15T20:11:41.589Z,96519.94
2022-11-15T20:14:11.109Z,96516.81
2022-11-15T20:16:39.416Z,96526.00
2022-11-15T20:19:09.145Z,96528.19
2022-11-15T20:21:36.681Z,96520.25
2022-11-15T20:24:05.158Z,96528.66
2022-11-15T20:26:32.975Z,96525.41
2022-11-15T20:29:02.346Z,96539.75
2022-11-15T20:31:30.891Z,96538.03
2022-11-15T20:33:58.655Z,96540.69
2022-11-15T20:36:26.323Z,96537.75
2022-11-15T20:38:58.368Z,96546.75
2022-11-15T20:41:26.797Z,96539.75
2022-11-15T20:43:54.266Z,96531.84
2022-11-15T20:46:21.816Z,96545.22
2022-11-15T20:48:49.226Z,96551.66
2022-11-15T20:51:18.753Z,96550.09
2022-11-15T20:53:47.793Z,96555.53
2022-11-15T20:56:18.335Z,96561.50
2022-11-15T20:58:47.225Z,96559.00
2022-11-15T21:01:16.443Z,96572.13
2022-11-15T21:03:44.223Z,96557.03
2022-11-15T21:06:12.199Z,96578.22
2022-11-15T21:08:57.988Z,96572.44
2022-11-15T21:11:44.113Z,96576.06
2022-11-15T21:14:11.625Z,96581.81
2022-11-15T21:16:39.248Z,96582.78
2022-11-15T21:19:07.373Z,96584.19
2022-11-15T21:21:36.744Z,96579.88
2022-11-15T21:24:06.534Z,96587.63
2022-11-15T21:26:35.073Z,96593.41
2022-11-15T21:29:03.173Z,96594.34
2022-11-15T21:31:32.244Z,96593.59
2022-11-15T21:34:04.266Z,96593.56
2022-11-15T21:36:34.376Z,96600.28
2022-11-15T21:39:02.136Z,96602.47
2022-11-15T21:41:29.669Z,96592.97
2022-11-15T21:44:01.201Z,96614.44
2022-11-15T21:46:29.945Z,96617.72
2022-11-15T21:48:58.439Z,96613.34
2022-11-15T21:51:25.924Z,96613.19
2022-11-15T21:53:56.707Z,96611.66
2022-11-15T21:56:25.966Z,96620.19
2022-11-15T21:58:54.494Z,96631.69
2022-11-15T22:01:44.321Z,96635.59
2022-11-15T22:04:12.205Z,96627.63
2022-11-15T22:06:39.808Z,96613.00
2022-11-15T22:09:07.721Z,96621.38
2022-11-15T22:11:35.713Z,96635.09
2022-11-15T22:14:03.229Z,96640.97
2022-11-15T22:16:31.374Z,96657.00
2022-11-15T22:18:59.011Z,96655.13
2022-11-15T22:21:26.654Z,96648.63
2022-11-15T22:23:54.131Z,96650.31
2022-11-15T22:26:23.792Z,96661.97
2022-11-15T22:28:52.217Z,96667.88
2022-11-15T22:31:19.687Z,96657.63
2022-11-15T22:33:47.281Z,96665.53
2022-11-15T22:36:15.115Z,96659.00
2022-11-15T22:38:42.805Z,96671.25
2022-11-15T22:41:10.320Z,96670.31
2022-11-15T22:43:38.113Z,96670.13
2022-11-15T22:46:06.306Z,96671.25
2022-11-15T22:48:36.659Z,96672.31
2022-11-15T22:51:05.180Z,96679.16
2022-11-15T22:53:33.383Z,96680.84
2022-11-15T22:56:03.301Z,96683.53
2022-11-15T22:58:33.218Z,96689.13
2022-11-15T23:01:05.905Z,96684.78
2022-11-15T23:03:34.733Z,96682.28
2022-11-15T23:06:07.351Z,96689.25
2022-11-15T23:08:35.543Z,96692.97
2022-11-15T23:11:23.240Z,96689.88
2022-11-15T23:13:52.325Z,96697.03
2022-11-15T23:16:24.095Z,96705.22
2022-11-15T23:18:59.225Z,96709.28
2022-11-15T23:21:46.472Z,96706.63
2022-11-15T23:24:15.274Z,96711.13
2022-11-15T23:26:43.933Z,96717.78
2022-11-15T23:29:13.869Z,96714.69
2022-11-15T23:32:02.434Z,96716.38
2022-11-15T23:34:31.959Z,96714.47
2022-11-15T23:37:00.186Z,96721.91
2022-11-15T23:39:28.184Z,96728.38
2022-11-15T23:42:00.325Z,96728.22
2022-11-15T23:44:29.607Z,96722.44
2022-11-15T23:46:57.483Z,96714.19
2022-11-15T23:49:24.955Z,96719.94
2022-11-15T23:51:52.463Z,96716.06
2022-11-15T23:54:19.999Z,96726.41
2022-11-15T23:56:47.408Z,96726.25
2022-11-15T23:59:14.904Z,96724.50
